Current Weather

Garoua

Garoua, Cameroon (FKKR)

Report from: Monday, June 17, 2024 10:00 AM WAT
Current time: Monday, June 17, 2024 10:37 AM WAT

Nearby weather – Weather history – Daily summaries
Weather forecast

Temperature30.0°C (86.0°F)
Heat index34.2°C (93.6°F)
Dew point23.0°C (73.4°F)
Winds 7 kts (3.6 m/s, 8.1 mph) Vrb
Winds variableWinds variable from Southwest (230°) to West-Northwest (300°)
Visibility6.2 mi. (10 km)
Clouds Few clouds 1,600 ft. (488 m)
Altimeter29.94 in.Hg (1014 mB)
Relative humidity66 %
Density altitude2,071 ft. (631 m)
Remarks No significant changes expected in the next two hours
Flight conditions Visual Meteorological Conditions
Raw dataFKKR 170900Z 26007KT 230V300 9999 FEW016 30/23 Q1014 NOSIG
An error has occurred. This application may no longer respond until reloaded. Reload 🗙